createdAt,value
2022-09-30T02:16:15.125Z,1.67
2022-09-30T02:21:40.536Z,1.80
2022-09-30T02:33:01.524Z,2.00
2022-09-30T02:44:23.043Z,1.90
2022-09-30T02:50:23.366Z,1.90
2022-09-30T03:02:33.227Z,1.75
2022-09-30T03:07:53.628Z,4.30
2022-09-30T03:20:28.208Z,1.98
2022-09-30T03:44:11.726Z,2.15
2022-09-30T03:49:23.419Z,2.55
2022-09-30T03:54:31.254Z,1.42
2022-09-30T03:59:43.655Z,5.15
2022-09-30T04:05:10.343Z,4.10
2022-09-30T04:10:40.144Z,5.25
2022-09-30T04:16:22.504Z,8.45
2022-09-30T04:21:34.764Z,1.85
2022-09-30T04:27:00.374Z,1.90
2022-09-30T04:32:19.203Z,1.42
2022-09-30T04:38:11.542Z,1.60
2022-09-30T04:43:32.985Z,2.40
2022-09-30T04:54:22.110Z,1.85
2022-09-30T04:59:40.104Z,6.05
2022-09-30T05:04:48.296Z,5.82
2022-09-30T05:09:53.477Z,6.30
2022-09-30T05:15:02.213Z,2.88
2022-09-30T05:20:23.557Z,4.47
2022-09-30T05:25:28.995Z,2.00
2022-09-30T05:31:11.232Z,2.15
2022-09-30T05:36:20.250Z,1.75
2022-09-30T05:42:04.086Z,2.53
2022-09-30T05:47:21.530Z,1.45
2022-09-30T05:52:29.449Z,2.33
2022-09-30T05:57:38.323Z,1.00
2022-09-30T06:03:36.674Z,0.57
2022-09-30T06:15:55.872Z,0.60
2022-09-30T06:32:13.554Z,0.82
2022-09-30T06:44:20.992Z,1.88
2022-09-30T06:55:46.885Z,0.85
2022-09-30T07:01:03.294Z,0.90
2022-09-30T07:06:13.274Z,2.85
2022-09-30T07:34:05.539Z,1.02
2022-09-30T07:39:20.856Z,1.08
2022-09-30T07:44:39.236Z,0.80
2022-09-30T08:12:23.107Z,0.43
2022-09-30T09:10:46.134Z,0.20
2022-09-30T09:22:15.077Z,0.60
2022-09-30T09:27:24.959Z,1.20
2022-09-30T09:32:32.655Z,1.38
2022-09-30T09:37:57.240Z,1.17
2022-09-30T09:43:22.872Z,2.15
2022-09-30T09:48:35.738Z,1.27
2022-09-30T09:53:49.791Z,1.42
2022-09-30T09:59:19.339Z,1.00
2022-09-30T10:04:30.584Z,1.63
2022-09-30T10:09:37.477Z,1.40
2022-09-30T10:14:46.498Z,1.27
2022-09-30T10:19:57.634Z,1.70
2022-09-30T10:25:25.463Z,1.58
2022-09-30T10:30:48.832Z,1.05
2022-09-30T10:36:12.766Z,3.42
2022-09-30T10:41:25.207Z,3.28
2022-09-30T10:46:33.281Z,0.98
2022-09-30T10:51:41.839Z,0.85
2022-09-30T10:56:48.724Z,1.38
2022-09-30T11:01:58.167Z,1.55
2022-09-30T11:07:18.082Z,1.40
2022-09-30T11:12:27.831Z,1.65
2022-09-30T11:17:37.433Z,1.35
2022-09-30T11:22:52.244Z,1.75
2022-09-30T11:28:23.110Z,0.90
2022-09-30T11:33:38.578Z,1.42
2022-09-30T11:39:03.613Z,1.35
2022-09-30T11:44:25.357Z,1.20
2022-09-30T11:49:44.270Z,1.33
2022-09-30T12:00:05.009Z,0.82
2022-09-30T12:05:14.357Z,0.82
2022-09-30T12:10:24.881Z,0.52
2022-09-30T12:15:30.780Z,0.75
2022-09-30T12:20:39.771Z,0.60
2022-09-30T12:25:51.013Z,0.43
2022-09-30T12:31:16.479Z,0.63
2022-09-30T12:36:32.468Z,1.17
2022-09-30T12:42:03.679Z,0.60
2022-09-30T12:47:16.839Z,0.90
2022-09-30T12:52:24.175Z,0.47
2022-09-30T12:57:34.052Z,0.63
2022-09-30T13:02:41.794Z,0.63
2022-09-30T13:08:12.173Z,0.65
2022-09-30T13:13:25.536Z,0.40
2022-09-30T13:19:00.443Z,0.75
2022-09-30T13:24:05.863Z,0.52
2022-09-30T13:29:41.379Z,0.43
2022-09-30T13:34:58.517Z,0.45
2022-09-30T13:40:04.994Z,0.43
2022-09-30T13:45:17.439Z,0.43
2022-09-30T13:50:27.251Z,0.80
2022-09-30T13:55:37.051Z,0.77
2022-09-30T14:00:56.350Z,0.70
2022-09-30T14:06:07.712Z,0.60
2022-09-30T14:11:27.038Z,1.02
2022-09-30T14:17:12.726Z,0.70
2022-09-30T14:22:21.130Z,0.77
2022-09-30T14:27:37.832Z,1.02
2022-09-30T14:32:49.469Z,0.95
2022-09-30T14:38:00.297Z,1.20
2022-09-30T14:43:10.333Z,1.33
2022-09-30T14:48:20.304Z,4.32
2022-09-30T14:53:32.984Z,4.00
2022-09-30T14:58:44.092Z,0.77
2022-09-30T15:03:51.659Z,0.60
2022-09-30T15:09:08.322Z,0.88
2022-09-30T15:14:20.656Z,0.52
2022-09-30T15:19:27.191Z,0.50
2022-09-30T15:24:36.504Z,0.82
2022-09-30T15:30:39.478Z,0.95
2022-09-30T15:35:45.560Z,0.60
2022-09-30T15:41:02.105Z,2.40
2022-09-30T15:46:22.066Z,0.47
2022-09-30T15:51:39.516Z,1.08
2022-09-30T16:02:52.855Z,0.70
2022-09-30T16:08:10.812Z,0.82
2022-09-30T16:13:43.874Z,0.80
2022-09-30T16:19:10.694Z,0.75
2022-09-30T16:24:45.779Z,0.80
2022-09-30T16:36:10.376Z,0.55
2022-09-30T16:41:22.677Z,0.80
2022-09-30T16:52:33.188Z,0.95
2022-09-30T16:57:40.314Z,0.73
2022-09-30T17:02:52.331Z,0.95
2022-09-30T17:08:01.417Z,1.10
2022-09-30T17:13:42.073Z,0.75
2022-09-30T17:19:07.457Z,1.17
2022-09-30T17:24:41.897Z,1.20
2022-09-30T17:30:53.057Z,1.60
2022-09-30T17:37:17.689Z,1.50
2022-09-30T18:11:25.322Z,0.88
2022-09-30T18:27:39.984Z,0.93
2022-09-30T18:32:52.396Z,0.52
2022-09-30T18:44:14.600Z,1.75
2022-09-30T18:49:19.929Z,1.02
2022-09-30T18:54:36.021Z,1.25
2022-09-30T18:59:51.432Z,0.98
2022-09-30T19:05:12.476Z,1.00
2022-09-30T19:10:17.861Z,1.30
2022-09-30T19:15:30.441Z,0.82
2022-09-30T19:20:40.541Z,0.88
2022-09-30T19:25:45.988Z,0.77
2022-09-30T19:30:54.075Z,1.38
2022-09-30T19:36:14.515Z,1.10
2022-09-30T19:41:24.115Z,1.25
2022-09-30T19:46:32.838Z,1.33
2022-09-30T19:51:38.397Z,1.02
2022-09-30T19:56:44.217Z,1.00
2022-09-30T20:01:52.434Z,1.20
2022-09-30T20:06:58.360Z,1.08
2022-09-30T20:12:04.887Z,1.40
2022-09-30T20:17:13.643Z,1.15
2022-09-30T20:22:26.090Z,1.52
2022-09-30T20:27:33.845Z,2.25
2022-09-30T20:32:42.005Z,1.30
2022-09-30T20:37:55.144Z,1.48
2022-09-30T20:43:03.313Z,1.30
2022-09-30T20:48:11.669Z,1.45
2022-09-30T20:53:17.656Z,1.80
2022-09-30T20:58:23.267Z,1.55
2022-09-30T21:03:34.808Z,1.55
2022-09-30T21:08:40.899Z,1.77
2022-09-30T21:13:50.759Z,1.60
2022-09-30T21:18:58.807Z,1.83
2022-09-30T21:24:04.633Z,2.50
2022-09-30T21:29:10.249Z,1.63
2022-09-30T21:34:21.150Z,1.25
2022-09-30T21:39:26.630Z,1.40
2022-09-30T21:44:31.949Z,1.98
2022-09-30T21:49:40.697Z,1.25
2022-09-30T21:54:46.098Z,1.02
2022-09-30T21:59:51.506Z,1.27
2022-09-30T22:04:59.415Z,3.65
2022-09-30T22:10:04.815Z,2.42
2022-09-30T22:15:19.151Z,1.58
2022-09-30T22:20:28.661Z,1.88
2022-09-30T22:25:34.119Z,2.10
2022-09-30T22:30:39.436Z,1.90
2022-09-30T22:35:59.606Z,1.45
2022-09-30T22:41:04.991Z,1.92
2022-09-30T22:46:12.212Z,1.60
2022-09-30T22:56:26.132Z,2.13
2022-09-30T23:01:32.270Z,3.17
2022-09-30T23:06:40.793Z,1.80
2022-09-30T23:11:46.356Z,2.40
2022-09-30T23:16:52.053Z,2.90
2022-09-30T23:22:00.215Z,4.00
2022-09-30T23:27:05.534Z,3.25
2022-09-30T23:32:10.810Z,3.80
2022-09-30T23:37:19.419Z,4.40
2022-09-30T23:42:24.708Z,2.95
2022-09-30T23:47:30.098Z,4.03
2022-09-30T23:52:51.255Z,3.15
2022-09-30T23:57:57.012Z,3.10
